Time;durP1;ratioP1;P1;durP2;ratioP2;P2;SDS_P1;SDS_P2;PMS_P1;PMS_P2;Temp;Humidity;BMP_temperature;BMP_pressure;BME280_temperature;BME280_humidity;BME280_pressure;Samples;Min_cycle;Max_cycle;Signal;HPM_P1;HPM_P2
2023/04/13 00:02:09;;;;;;;;;;;;;;;12.06;34.99;94344.81;5010875;28;19925;-67
2023/04/13 00:04:36;;;;;;;;;;;;;;;11.91;34.86;94345.75;5010998;28;19960;-69
2023/04/13 00:07:03;;;;;;;;;;;;;;;11.97;34.79;94341.22;5010742;28;19921;-66
2023/04/13 00:09:29;;;;;;;;;;;;;;;11.88;34.75;94345.47;5010622;28;20313;-65
2023/04/13 00:12:00;;;;;;;;;;;;;;;11.84;34.92;94341.88;5009929;28;19928;-67
2023/04/13 00:14:32;;;;;;;;;;;;;;;11.70;34.93;94364.53;5010695;28;19921;-67
2023/04/13 00:16:59;;;;;;;;;;;;;;;11.52;35.17;94359.91;5010323;28;19921;-67
2023/04/13 00:19:27;;;;;;;;;;;;;;;11.44;35.43;94368.38;5010863;28;20464;-65
2023/04/13 00:21:53;;;;;;;;;;;;;;;11.55;35.21;94375.13;5010038;28;19952;-63
2023/04/13 00:24:20;;;;;;;;;;;;;;;11.55;35.26;94369.88;5013536;28;20020;-69
2023/04/13 00:26:47;;;;;;;;;;;;;;;11.62;35.06;94376.41;5015767;28;19963;-69
2023/04/13 00:29:14;;;;;;;;;;;;;;;11.41;35.11;94368.91;5011049;28;20011;-70
2023/04/13 00:31:42;;;;;;;;;;;;;;;11.38;34.98;94370.25;5010620;28;20016;-66
2023/04/13 00:34:09;;;;;;;;;;;;;;;11.51;35.13;94371.47;5010362;28;19925;-65
2023/04/13 00:36:35;;;;;;;;;;;;;;;11.23;35.24;94372.97;5009953;28;20347;-65
2023/04/13 00:39:03;;;;;;;;;;;;;;;11.17;35.83;94372.22;5010485;28;19921;-67
2023/04/13 00:41:30;;;;;;;;;;;;;;;11.14;35.79;94377.22;5009886;28;19923;-66
2023/04/13 00:43:57;;;;;;;;;;;;;;;11.05;35.87;94371.78;5025627;28;19945;-67
2023/04/13 00:46:28;;;;;;;;;;;;;;;10.18;37.31;94366.34;5010114;28;19932;-68
2023/04/13 00:48:57;;;;;;;;;;;;;;;10.40;37.00;94369.41;5034767;28;19921;-67
2023/04/13 00:51:23;;;;;;;;;;;;;;;10.67;37.09;94372.47;5011556;28;19926;-66
2023/04/13 00:53:50;;;;;;;;;;;;;;;10.83;36.58;94368.72;5010166;28;19929;-66
2023/04/13 00:56:17;;;;;;;;;;;;;;;10.87;36.54;94364.53;5009406;28;20028;-65
2023/04/13 00:58:44;;;;;;;;;;;;;;;10.93;36.56;94371.28;5009965;28;19925;-67
2023/04/13 01:01:11;;;;;;;;;;;;;;;10.77;36.75;94369.78;5024399;28;19937;-67
2023/04/13 01:03:38;;;;;;;;;;;;;;;10.65;37.13;94381.63;5008015;28;19925;-67
2023/04/13 01:06:08;;;;;;;;;;;;;;;10.20;37.32;94370.25;5017626;28;19960;-67
2023/04/13 01:08:38;;;;;;;;;;;;;;;10.59;36.94;94380.88;5013106;28;19953;-67
2023/04/13 01:11:14;;;;;;;;;;;;;;;10.70;36.88;94379.00;5019044;28;19964;-64
2023/04/13 01:13:47;;;;;;;;;;;;;;;10.79;36.63;94382.63;5025949;28;20020;-64
2023/04/13 01:16:24;;;;;;;;;;;;;;;10.88;36.47;94381.00;5021031;28;19925;-64
2023/04/13 01:18:52;;;;;;;;;;;;;;;10.83;36.14;94379.22;5010114;28;19932;-65
2023/04/13 01:21:38;;;;;;;;;;;;;;;10.72;36.37;94382.94;5009322;28;19928;-64
2023/04/13 01:24:16;;;;;;;;;;;;;;;10.92;36.03;94374.19;5036925;28;19925;-65
2023/04/13 01:26:57;;;;;;;;;;;;;;;10.68;36.45;94381.09;5016864;28;20581;-66
2023/04/13 01:29:25;;;;;;;;;;;;;;;10.68;35.93;94374.03;5009962;28;19987;-65
2023/04/13 01:31:53;;;;;;;;;;;;;;;10.76;35.74;94378.72;5020761;28;20307;-67
2023/04/13 01:34:22;;;;;;;;;;;;;;;10.85;36.22;94371.88;5033332;28;19929;-65
2023/04/13 01:36:49;;;;;;;;;;;;;;;10.97;35.67;94366.28;5011707;28;20059;-66
2023/04/13 01:39:18;;;;;;;;;;;;;;;10.98;35.85;94370.50;5009541;28;19925;-65
2023/04/13 01:41:46;;;;;;;;;;;;;;;10.75;36.34;94382.38;5007388;28;19936;-67
2023/04/13 01:44:13;;;;;;;;;;;;;;;9.56;37.87;94378.91;5025090;28;19937;-65
2023/04/13 01:46:46;;;;;;;;;;;;;;;9.86;37.15;94368.44;5041242;28;19944;-70
2023/04/13 01:49:51;;;;;;;;;;;;;;;9.76;37.13;94371.06;5012093;28;19932;-68
2023/04/13 01:52:31;;;;;;;;;;;;;;;9.82;37.51;94368.16;5008666;28;19931;-65
2023/04/13 01:54:59;;;;;;;;;;;;;;;9.28;37.87;94367.13;5043542;28;20644;-66
2023/04/13 01:57:29;;;;;;;;;;;;;;;9.71;36.94;94371.03;5013384;28;19949;-65
2023/04/13 02:00:13;;;;;;;;;;;;;;;9.64;36.29;94354.81;5032148;28;19932;-65
2023/04/13 02:02:43;;;;;;;;;;;;;;;9.71;36.27;94363.19;5026759;28;19940;-68
2023/04/13 02:05:11;;;;;;;;;;;;;;;9.82;36.23;94357.69;5020727;28;19925;-69
2023/04/13 02:07:38;;;;;;;;;;;;;;;10.09;35.44;94365.31;5033057;28;19928;-66
2023/04/13 02:10:05;;;;;;;;;;;;;;;10.36;34.70;94364.97;5024853;28;19932;-69
2023/04/13 02:12:33;;;;;;;;;;;;;;;9.98;35.59;94361.09;5023866;28;19979;-66
2023/04/13 02:15:00;;;;;;;;;;;;;;;10.32;35.38;94367.34;5007393;28;20410;-66
2023/04/13 02:17:28;;;;;;;;;;;;;;;10.49;35.72;94370.41;5027759;28;19925;-64
2023/04/13 02:19:56;;;;;;;;;;;;;;;10.36;34.83;94381.47;5028043;28;19991;-65
2023/04/13 02:22:23;;;;;;;;;;;;;;;10.30;35.33;94369.44;5022049;28;19975;-67
2023/04/13 02:24:50;;;;;;;;;;;;;;;10.00;36.20;94374.69;5013446;28;20367;-65
2023/04/13 02:27:16;;;;;;;;;;;;;;;9.90;36.00;94383.34;5030886;28;20349;-67
2023/04/13 02:29:43;;;;;;;;;;;;;;;10.01;35.80;94386.72;5013268;28;20007;-65
2023/04/13 02:32:10;;;;;;;;;;;;;;;10.15;35.63;94387.78;5027544;28;19936;-67
2023/04/13 02:34:37;;;;;;;;;;;;;;;10.09;36.49;94391.47;5027826;28;19922;-66
2023/04/13 02:37:08;;;;;;;;;;;;;;;10.26;36.96;94402.44;5011850;28;20280;-69
2023/04/13 02:39:36;;;;;;;;;;;;;;;10.24;36.76;94396.66;5039881;28;19929;-65
2023/04/13 02:42:04;;;;;;;;;;;;;;;10.36;36.23;94407.66;5030269;28;19960;-65
2023/04/13 02:44:32;;;;;;;;;;;;;;;10.02;36.18;94393.53;5017688;28;20054;-64
2023/04/13 02:47:00;;;;;;;;;;;;;;;9.36;36.74;94389.34;5027111;28;19948;-67
2023/04/13 02:49:27;;;;;;;;;;;;;;;9.80;36.79;94390.41;5024405;28;19925;-67
2023/04/13 02:52:30;;;;;;;;;;;;;;;9.82;36.76;94406.63;5015263;28;19932;-63
2023/04/13 02:55:01;;;;;;;;;;;;;;;9.75;36.00;94395.63;5017265;28;19944;-66
2023/04/13 02:57:41;;;;;;;;;;;;;;;9.65;37.25;94399.03;5028210;28;19924;-68
2023/04/13 03:00:09;;;;;;;;;;;;;;;9.87;37.30;94406.66;5012390;28;20031;-67
2023/04/13 03:02:45;;;;;;;;;;;;;;;10.02;37.26;94417.88;5044253;28;20411;-67
2023/04/13 03:05:15;;;;;;;;;;;;;;;9.54;38.03;94412.38;5015044;28;19948;-66
2023/04/13 03:07:45;;;;;;;;;;;;;;;9.71;37.66;94421.53;5010695;28;19967;-69
2023/04/13 03:10:12;;;;;;;;;;;;;;;9.96;37.25;94415.53;5027273;28;19960;-68
2023/04/13 03:12:41;;;;;;;;;;;;;;;9.87;37.49;94415.25;5030086;28;20000;-65
2023/04/13 03:15:10;;;;;;;;;;;;;;;10.00;37.22;94411.31;5030911;28;19929;-68
2023/04/13 03:17:39;;;;;;;;;;;;;;;9.85;37.98;94411.34;5034866;28;19925;-66
2023/04/13 03:20:09;;;;;;;;;;;;;;;9.89;37.85;94415.03;5010566;28;20353;-66
2023/04/13 03:22:38;;;;;;;;;;;;;;;9.77;37.97;94417.09;5039277;28;19953;-67
2023/04/13 03:25:07;;;;;;;;;;;;;;;9.77;38.06;94412.66;5014159;28;19926;-65
2023/04/13 03:27:37;;;;;;;;;;;;;;;9.60;38.75;94414.72;5026473;28;19932;-67
2023/04/13 03:30:07;;;;;;;;;;;;;;;9.08;39.84;94424.56;5023382;28;20308;-69
2023/04/13 03:32:43;;;;;;;;;;;;;;;9.37;39.56;94417.06;5021406;28;20589;-66
2023/04/13 03:35:10;;;;;;;;;;;;;;;9.48;39.10;94423.88;5025360;28;19927;-65
2023/04/13 03:37:42;;;;;;;;;;;;;;;9.37;39.58;94430.13;5012333;28;20434;-67
2023/04/13 03:40:26;;;;;;;;;;;;;;;9.18;39.71;94430.59;5048608;28;20436;-69
2023/04/13 03:42:54;;;;;;;;;;;;;;;9.28;39.47;94423.84;5029596;28;19924;-69
2023/04/13 03:45:24;;;;;;;;;;;;;;;9.40;39.16;94421.78;5001687;28;19925;-66
2023/04/13 03:47:54;;;;;;;;;;;;;;;9.29;39.15;94425.41;5015347;28;19948;-66
2023/04/13 03:50:22;;;;;;;;;;;;;;;9.55;39.17;94424.41;5026581;28;19925;-65
2023/04/13 03:52:50;;;;;;;;;;;;;;;9.59;38.87;94425.47;5039133;28;20419;-67
2023/04/13 03:55:17;;;;;;;;;;;;;;;9.49;38.94;94433.31;5011013;28;19955;-67
2023/04/13 03:57:48;;;;;;;;;;;;;;;9.44;38.99;94433.28;5039044;28;19976;-66
2023/04/13 04:00:19;;;;;;;;;;;;;;;9.44;39.28;94428.03;5027313;28;19929;-68
2023/04/13 04:02:59;;;;;;;;;;;;;;;9.49;39.14;94425.47;5028733;28;20407;-66
2023/04/13 04:05:35;;;;;;;;;;;;;;;9.39;38.90;94430.66;5023967;28;20472;-63
2023/04/13 04:08:03;;;;;;;;;;;;;;;9.41;39.39;94434.59;5025939;28;19925;-69
2023/04/13 04:10:30;;;;;;;;;;;;;;;9.40;39.13;94433.00;5025197;28;20051;-66
2023/04/13 04:12:58;;;;;;;;;;;;;;;9.16;39.40;94437.91;5038635;28;20007;-68
2023/04/13 04:15:26;;;;;;;;;;;;;;;9.19;39.77;94432.19;5026377;28;20008;-67
2023/04/13 04:17:59;;;;;;;;;;;;;;;9.34;40.32;94441.09;5039089;28;19946;-68
2023/04/13 04:20:27;;;;;;;;;;;;;;;9.52;39.55;94432.78;5038365;28;19925;-68
2023/04/13 04:22:59;;;;;;;;;;;;;;;9.30;39.50;94442.66;5010706;28;19948;-67
2023/04/13 04:25:32;;;;;;;;;;;;;;;9.29;39.90;94446.34;5020292;28;19932;-70
2023/04/13 04:28:01;;;;;;;;;;;;;;;9.06;40.35;94443.13;5028446;28;19956;-67
2023/04/13 04:30:32;;;;;;;;;;;;;;;9.23;40.11;94448.91;5026948;28;20398;-66
2023/04/13 04:33:01;;;;;;;;;;;;;;;8.91;40.13;94437.84;5043852;28;19931;-67
2023/04/13 04:35:33;;;;;;;;;;;;;;;9.07;40.07;94444.69;5040461;28;19968;-68
2023/04/13 04:38:03;;;;;;;;;;;;;;;9.04;39.86;94453.06;5026826;28;19921;-68
2023/04/13 04:40:35;;;;;;;;;;;;;;;8.47;40.60;94460.06;5020379;28;19932;-65
2023/04/13 04:43:05;;;;;;;;;;;;;;;8.54;40.77;94452.81;5012939;28;20392;-67
2023/04/13 04:45:50;;;;;;;;;;;;;;;8.93;40.01;94454.06;5018342;28;19999;-66
2023/04/13 04:48:19;;;;;;;;;;;;;;;9.36;39.72;94447.63;5009900;28;20408;-66
2023/04/13 04:50:47;;;;;;;;;;;;;;;9.58;39.76;94450.81;5042070;28;19955;-70
2023/04/13 04:53:15;;;;;;;;;;;;;;;9.75;39.84;94453.19;5027213;28;19921;-66
2023/04/13 04:55:45;;;;;;;;;;;;;;;9.89;39.83;94451.66;5027908;28;19925;-70
2023/04/13 04:58:22;;;;;;;;;;;;;;;9.98;39.39;94460.56;5018777;28;19959;-69
2023/04/13 05:00:55;;;;;;;;;;;;;;;10.14;39.43;94459.53;5027083;28;20023;-68
2023/04/13 05:03:22;;;;;;;;;;;;;;;10.30;38.89;94458.47;5032223;28;19921;-67
2023/04/13 05:05:56;;;;;;;;;;;;;;;10.27;39.44;94443.28;5008485;28;20304;-68
2023/04/13 05:08:29;;;;;;;;;;;;;;;10.14;39.21;94451.69;5008258;28;20466;-66
2023/04/13 05:10:56;;;;;;;;;;;;;;;10.50;39.20;94453.19;5017988;28;19999;-68
2023/04/13 05:13:22;;;;;;;;;;;;;;;10.30;39.51;94448.00;5011359;28;19921;-67
2023/04/13 05:16:09;;;;;;;;;;;;;;;10.64;38.65;94442.94;5037368;28;19925;-69
2023/04/13 05:18:44;;;;;;;;;;;;;;;10.71;38.28;94453.94;5015237;28;19992;-67
2023/04/13 05:21:23;;;;;;;;;;;;;;;10.77;38.31;94453.66;5011735;28;19929;-66
2023/04/13 05:23:56;;;;;;;;;;;;;;;11.03;38.38;94442.03;5033630;28;20418;-67
2023/04/13 05:26:24;;;;;;;;;;;;;;;11.04;38.51;94454.09;5008583;28;19925;-75
2023/04/13 05:28:53;;;;;;;;;;;;;;;11.31;38.00;94452.94;5039061;28;19989;-76
2023/04/13 05:31:23;;;;;;;;;;;;;;;11.20;38.90;94452.97;5008218;28;19921;-66
2023/04/13 05:33:51;;;;;;;;;;;;;;;11.35;39.46;94448.72;5008517;28;19925;-66
2023/04/13 05:36:18;;;;;;;;;;;;;;;11.61;38.23;94452.75;5010164;28;19953;-69
2023/04/13 05:38:46;;;;;;;;;;;;;;;11.67;38.12;94456.94;5025172;28;19926;-66
2023/04/13 05:41:18;;;;;;;;;;;;;;;11.77;37.23;94451.63;5038087;28;19948;-64
2023/04/13 05:43:45;;;;;;;;;;;;;;;11.84;37.27;94449.50;5010145;28;19922;-65
2023/04/13 05:46:12;;;;;;;;;;;;;;;11.83;36.80;94445.28;5038059;28;20402;-68
2023/04/13 05:48:40;;;;;;;;;;;;;;;12.04;36.47;94441.47;5025092;28;19925;-67
2023/04/13 05:51:08;;;;;;;;;;;;;;;12.01;36.02;94447.25;5024003;28;19944;-68
2023/04/13 05:53:35;;;;;;;;;;;;;;;12.13;36.35;94445.81;5017750;28;20273;-67
2023/04/13 05:56:02;;;;;;;;;;;;;;;12.11;35.59;94447.97;5026109;28;20059;-66
2023/04/13 05:58:30;;;;;;;;;;;;;;;12.24;35.92;94451.81;5008451;28;19967;-67
2023/04/13 06:01:11;;;;;;;;;;;;;;;12.37;35.56;94445.88;5042405;28;19951;-67
2023/04/13 06:03:38;;;;;;;;;;;;;;;12.31;34.34;94431.25;5016571;28;19929;-68
2023/04/13 06:06:05;;;;;;;;;;;;;;;12.13;34.83;94434.56;5008590;28;19933;-66
2023/04/13 06:08:33;;;;;;;;;;;;;;;12.25;35.02;94445.47;5009782;28;19925;-67
2023/04/13 06:11:00;;;;;;;;;;;;;;;12.52;33.83;94437.88;5010026;28;19968;-65
2023/04/13 06:13:27;;;;;;;;;;;;;;;12.46;33.97;94439.00;5009542;28;20024;-67
2023/04/13 06:15:54;;;;;;;;;;;;;;;12.72;33.68;94444.75;5010027;28;19928;-67
2023/04/13 06:18:21;;;;;;;;;;;;;;;12.62;34.21;94448.28;5008964;28;20395;-67
2023/04/13 06:20:47;;;;;;;;;;;;;;;12.66;34.32;94441.41;5009971;28;19932;-67
2023/04/13 06:23:14;;;;;;;;;;;;;;;12.67;33.52;94440.34;5026204;28;19924;-69
2023/04/13 06:25:41;;;;;;;;;;;;;;;12.70;34.23;94449.53;5028051;28;19921;-67
2023/04/13 06:28:11;;;;;;;;;;;;;;;12.58;33.49;94442.00;5017452;28;19983;-65
2023/04/13 06:30:41;;;;;;;;;;;;;;;12.29;33.85;94451.75;5008130;28;19921;-65
2023/04/13 06:33:11;;;;;;;;;;;;;;;12.29;34.07;94445.69;5024441;28;19921;-67
2023/04/13 06:35:39;;;;;;;;;;;;;;;12.83;33.77;94444.38;5027445;28;19921;-68
2023/04/13 06:38:08;;;;;;;;;;;;;;;12.98;33.47;94441.59;5027133;28;19921;-67
2023/04/13 06:40:47;;;;;;;;;;;;;;;11.96;32.14;94452.53;5024616;28;19980;-66
2023/04/13 06:43:14;;;;;;;;;;;;;;;12.26;32.39;94444.44;5021093;28;19971;-64
2023/04/13 06:46:13;;;;;;;;;;;;;;;12.90;31.54;94444.06;5007998;28;19928;-67
2023/04/13 06:48:42;;;;;;;;;;;;;;;13.03;30.92;94444.19;5015995;28;19921;-67
2023/04/13 06:51:11;;;;;;;;;;;;;;;13.35;31.26;94440.13;5026363;28;19924;-67
2023/04/13 06:53:40;;;;;;;;;;;;;;;13.53;31.30;94436.72;5020657;28;19932;-65
2023/04/13 06:56:07;;;;;;;;;;;;;;;13.67;31.77;94434.91;5025036;28;20360;-65
2023/04/13 06:58:35;;;;;;;;;;;;;;;13.63;31.40;94439.97;5017984;28;19952;-64
2023/04/13 07:01:03;;;;;;;;;;;;;;;13.73;30.06;94441.69;5011373;28;20016;-66
2023/04/13 07:03:32;;;;;;;;;;;;;;;13.52;30.65;94443.81;5037559;28;19921;-65
2023/04/13 07:06:01;;;;;;;;;;;;;;;13.64;30.57;94433.66;5028291;28;19921;-64
2023/04/13 07:08:28;;;;;;;;;;;;;;;13.95;31.43;94428.72;5040952;28;19920;-68
2023/04/13 07:10:56;;;;;;;;;;;;;;;14.29;31.53;94431.88;5012649;28;20412;-67
2023/04/13 07:13:31;;;;;;;;;;;;;;;13.62;29.74;94435.00;5027638;28;19921;-65
2023/04/13 07:15:58;;;;;;;;;;;;;;;13.78;30.52;94439.75;5013017;28;20013;-66
2023/04/13 07:18:25;;;;;;;;;;;;;;;14.43;30.14;94432.72;5027221;28;19925;-65
2023/04/13 07:20:53;;;;;;;;;;;;;;;14.19;29.65;94435.47;5039449;28;19921;-68
2023/04/13 07:23:23;;;;;;;;;;;;;;;14.24;29.96;94431.94;5011902;28;19959;-64
2023/04/13 07:25:50;;;;;;;;;;;;;;;14.65;29.71;94432.81;5011814;28;19991;-67
2023/04/13 07:28:22;;;;;;;;;;;;;;;14.82;29.05;94438.31;5027777;28;20440;-67
2023/04/13 07:30:52;;;;;;;;;;;;;;;15.10;28.49;94426.72;5047190;28;19971;-66
2023/04/13 07:33:19;;;;;;;;;;;;;;;14.92;28.51;94427.59;5030437;28;19921;-66
2023/04/13 07:35:50;;;;;;;;;;;;;;;15.19;29.11;94422.31;5035145;28;19921;-68
2023/04/13 07:38:17;;;;;;;;;;;;;;;15.06;29.11;94417.03;5032899;28;20297;-67
2023/04/13 07:40:44;;;;;;;;;;;;;;;15.22;29.83;94415.63;5027634;28;20380;-68
2023/04/13 07:43:11;;;;;;;;;;;;;;;14.91;28.40;94420.75;5040540;28;19924;-62
2023/04/13 07:45:41;;;;;;;;;;;;;;;14.98;27.31;94410.56;5010909;28;19932;-65
2023/04/13 07:48:08;;;;;;;;;;;;;;;15.24;27.98;94409.00;5010442;28;19984;-64
2023/04/13 07:50:41;;;;;;;;;;;;;;;15.19;27.95;94410.97;5037609;28;20472;-66
2023/04/13 07:53:12;;;;;;;;;;;;;;;15.26;27.93;94398.13;5030169;28;19928;-66
2023/04/13 07:55:40;;;;;;;;;;;;;;;15.29;28.19;94409.97;5035170;28;20351;-66
2023/04/13 07:58:08;;;;;;;;;;;;;;;15.23;27.20;94404.81;5010459;28;19922;-66
2023/04/13 08:00:35;;;;;;;;;;;;;;;15.55;28.25;94403.09;5011973;28;19925;-65
2023/04/13 08:03:05;;;;;;;;;;;;;;;15.66;27.33;94396.50;5046069;28;19943;-66
2023/04/13 08:05:35;;;;;;;;;;;;;;;15.73;27.61;94396.91;5030033;28;19921;-64
2023/04/13 08:08:02;;;;;;;;;;;;;;;15.85;28.08;94386.56;5034589;28;20389;-66
2023/04/13 08:10:29;;;;;;;;;;;;;;;16.11;28.24;94395.47;5029379;28;19921;-66
2023/04/13 08:12:59;;;;;;;;;;;;;;;15.97;26.64;94397.38;5028379;28;19921;-66
2023/04/13 08:15:26;;;;;;;;;;;;;;;16.40;27.69;94393.16;5017312;28;19925;-66
2023/04/13 08:17:53;;;;;;;;;;;;;;;16.24;27.42;94384.00;5029495;28;19934;-66
2023/04/13 08:20:21;;;;;;;;;;;;;;;15.95;26.86;94388.97;5026891;28;20028;-67
2023/04/13 08:22:51;;;;;;;;;;;;;;;15.79;27.02;94387.75;5012900;28;19983;-66
2023/04/13 08:25:19;;;;;;;;;;;;;;;16.46;26.33;94376.03;5032717;28;19960;-66
2023/04/13 08:27:46;;;;;;;;;;;;;;;16.61;26.67;94373.03;5010862;28;19925;-64
2023/04/13 08:30:13;;;;;;;;;;;;;;;15.50;27.46;94376.78;5039721;28;19932;-64
2023/04/13 08:33:06;;;;;;;;;;;;;;;15.65;26.71;94365.91;5010383;28;19933;-68
2023/04/13 08:35:37;;;;;;;;;;;;;;;16.11;26.74;94367.16;5026163;28;19937;-67
2023/04/13 08:38:07;;;;;;;;;;;;;;;16.62;26.22;94365.91;5038776;28;19921;-65
2023/04/13 08:40:39;;;;;;;;;;;;;;;16.42;25.62;94363.75;5009687;28;19925;-63
2023/04/13 08:43:12;;;;;;;;;;;;;;;16.58;27.00;94373.66;5010559;28;19929;-67
2023/04/13 08:45:42;;;;;;;;;;;;;;;16.96;26.43;94352.78;5034682;28;19925;-66
2023/04/13 08:48:10;;;;;;;;;;;;;;;17.01;26.30;94350.75;5013170;28;19940;-67
2023/04/13 08:50:39;;;;;;;;;;;;;;;17.26;26.30;94349.28;5026060;28;19931;-64
2023/04/13 08:53:08;;;;;;;;;;;;;;;17.50;26.16;94351.50;5043143;28;19944;-66
2023/04/13 08:55:41;;;;;;;;;;;;;;;17.85;26.31;94342.44;5018372;28;20359;-64
2023/04/13 08:58:11;;;;;;;;;;;;;;;18.15;25.87;94346.78;5009232;28;20348;-65
2023/04/13 09:00:40;;;;;;;;;;;;;;;18.12;25.63;94347.38;5022101;28;20008;-66
2023/04/13 09:03:11;;;;;;;;;;;;;;;18.29;25.49;94335.97;5008858;28;19925;-65
2023/04/13 09:05:44;;;;;;;;;;;;;;;18.14;25.10;94340.69;5025730;28;19969;-66
2023/04/13 09:08:13;;;;;;;;;;;;;;;18.36;25.02;94342.34;5038525;28;19935;-64
2023/04/13 09:10:44;;;;;;;;;;;;;;;18.29;24.71;94342.06;5025875;28;19925;-65
2023/04/13 09:13:11;;;;;;;;;;;;;;;18.43;25.95;94337.34;5010049;28;19965;-63
2023/04/13 09:15:39;;;;;;;;;;;;;;;18.69;26.30;94330.06;5018063;28;19920;-67
2023/04/13 09:18:17;;;;;;;;;;;;;;;18.58;26.15;94331.53;5028483;28;19925;-66
2023/04/13 09:20:56;;;;;;;;;;;;;;;18.80;25.41;94328.63;5028870;28;19931;-63
2023/04/13 09:23:23;;;;;;;;;;;;;;;18.72;25.22;94334.72;5010851;28;19921;-64
2023/04/13 09:26:02;;;;;;;;;;;;;;;19.11;25.94;94326.41;5010296;28;20021;-63
2023/04/13 09:28:29;;;;;;;;;;;;;;;19.28;26.06;94330.06;5010150;28;19968;-65
2023/04/13 09:31:03;;;;;;;;;;;;;;;19.54;27.07;94323.50;5010413;28;19925;-63
2023/04/13 09:33:32;;;;;;;;;;;;;;;19.83;26.53;94314.66;5009872;28;19928;-64
2023/04/13 09:36:07;;;;;;;;;;;;;;;20.14;25.95;94304.34;5010860;28;19957;-65
2023/04/13 09:38:34;;;;;;;;;;;;;;;20.25;25.65;94300.19;5010651;28;19925;-61
2023/04/13 09:41:01;;;;;;;;;;;;;;;20.36;25.77;94305.88;5010358;28;20027;-66
2023/04/13 09:43:38;;;;;;;;;;;;;;;20.55;25.22;94298.13;5010173;28;19928;-65
2023/04/13 09:46:12;;;;;;;;;;;;;;;20.10;24.07;94298.13;5010112;28;19936;-64
2023/04/13 09:48:39;;;;;;;;;;;;;;;20.63;25.23;94295.38;5010595;28;19922;-64
2023/04/13 09:51:07;;;;;;;;;;;;;;;20.89;24.32;94290.47;5010459;28;19957;-64
2023/04/13 09:53:48;;;;;;;;;;;;;;;21.14;24.45;94284.06;5010398;28;19928;-65
2023/04/13 09:56:16;;;;;;;;;;;;;;;21.29;24.91;94281.78;5009229;28;19932;-63
2023/04/13 09:58:43;;;;;;;;;;;;;;;21.53;24.41;94279.81;5010030;28;19925;-66
2023/04/13 10:01:10;;;;;;;;;;;;;;;21.86;23.37;94276.97;5009373;28;20308;-66
2023/04/13 10:03:37;;;;;;;;;;;;;;;21.67;24.44;94268.78;5009459;28;20447;-63
2023/04/13 10:06:06;;;;;;;;;;;;;;;21.73;23.53;94267.44;5010049;28;20261;-65
2023/04/13 10:08:36;;;;;;;;;;;;;;;22.16;23.62;94264.81;5011633;28;19928;-67
2023/04/13 10:11:07;;;;;;;;;;;;;;;22.38;23.43;94260.78;5013114;28;20253;-65
2023/04/13 10:13:36;;;;;;;;;;;;;;;22.27;24.30;94265.84;5009983;28;19922;-64
2023/04/13 10:16:18;;;;;;;;;;;;;;;21.89;22.92;94257.63;5010476;28;20019;-62
2023/04/13 10:18:51;;;;;;;;;;;;;;;22.56;23.32;94262.00;5010354;28;20372;-65
2023/04/13 10:21:18;;;;;;;;;;;;;;;22.77;23.13;94247.25;5009476;28;20381;-62
2023/04/13 10:23:45;;;;;;;;;;;;;;;22.83;22.96;94245.09;5009943;28;19922;-63
2023/04/13 10:26:12;;;;;;;;;;;;;;;23.24;23.31;94249.06;5009575;28;19969;-65
2023/04/13 10:28:48;;;;;;;;;;;;;;;22.84;22.32;94247.44;5009777;28;19956;-68
2023/04/13 10:31:15;;;;;;;;;;;;;;;23.02;22.48;94248.59;5009432;28;19921;-64
2023/04/13 10:33:46;;;;;;;;;;;;;;;23.18;22.93;94240.53;5010029;28;19925;-65
2023/04/13 10:36:12;;;;;;;;;;;;;;;22.43;21.58;94231.94;5010120;28;20044;-61
2023/04/13 10:38:43;;;;;;;;;;;;;;;22.87;22.82;94236.03;5013402;28;20526;-65
2023/04/13 10:41:21;;;;;;;;;;;;;;;23.19;22.63;94230.63;5024876;28;19921;-64
2023/04/13 10:43:58;;;;;;;;;;;;;;;23.02;22.20;94219.22;5013853;28;19933;-63
2023/04/13 10:46:25;;;;;;;;;;;;;;;23.31;23.28;94222.50;5013252;28;19968;-66
2023/04/13 10:48:57;;;;;;;;;;;;;;;23.37;21.81;94226.44;5013540;28;20266;-66
2023/04/13 10:51:26;;;;;;;;;;;;;;;23.59;22.68;94217.72;5012984;28;19921;-65
2023/04/13 10:54:02;;;;;;;;;;;;;;;23.56;22.50;94218.41;5013286;28;20071;-63
2023/04/13 10:56:29;;;;;;;;;;;;;;;23.41;22.67;94220.03;5012257;28;19947;-64
2023/04/13 10:58:56;;;;;;;;;;;;;;;22.03;22.18;94224.06;5025055;28;20023;-65
2023/04/13 11:01:24;;;;;;;;;;;;;;;22.40;22.78;94215.81;5013226;28;19925;-64
2023/04/13 11:03:51;;;;;;;;;;;;;;;23.00;23.34;94204.63;5013062;28;19922;-62
2023/04/13 11:06:37;;;;;;;;;;;;;;;23.44;22.85;94202.53;5012558;28;20371;-65
2023/04/13 11:09:05;;;;;;;;;;;;;;;23.79;23.46;94192.50;5012846;28;19928;-63
2023/04/13 11:11:34;;;;;;;;;;;;;;;24.08;22.79;94197.25;5012467;28;19933;-64
2023/04/13 11:14:02;;;;;;;;;;;;;;;24.35;22.93;94190.81;5019831;28;19968;-63
2023/04/13 11:16:30;;;;;;;;;;;;;;;24.21;23.23;94189.81;5022920;28;19931;-64
2023/04/13 11:19:01;;;;;;;;;;;;;;;24.27;22.56;94189.16;5024841;28;20382;-64
2023/04/13 11:21:28;;;;;;;;;;;;;;;23.75;21.87;94180.97;5019851;28;20043;-62
2023/04/13 11:24:01;;;;;;;;;;;;;;;24.27;22.56;94181.13;5026425;28;19925;-65
2023/04/13 11:26:36;;;;;;;;;;;;;;;24.03;22.30;94181.50;5028195;28;20695;-65
2023/04/13 11:29:04;;;;;;;;;;;;;;;24.36;22.14;94176.28;5019733;28;20020;-68
2023/04/13 11:31:37;;;;;;;;;;;;;;;24.34;21.46;94177.78;5020938;28;20408;-65
2023/04/13 11:34:05;;;;;;;;;;;;;;;24.55;21.52;94173.53;5011201;28;19960;-62
2023/04/13 11:36:32;;;;;;;;;;;;;;;24.62;22.50;94162.13;5015589;28;19943;-64
2023/04/13 11:39:00;;;;;;;;;;;;;;;25.02;22.13;94160.44;5011386;28;20012;-64
2023/04/13 11:41:28;;;;;;;;;;;;;;;25.41;21.64;94160.19;5021441;28;20020;-63
2023/04/13 11:43:56;;;;;;;;;;;;;;;25.16;20.82;94164.44;5024799;28;19925;-63
2023/04/13 11:46:25;;;;;;;;;;;;;;;25.57;21.05;94163.41;5025164;28;19925;-63
2023/04/13 11:48:53;;;;;;;;;;;;;;;25.48;21.27;94168.31;5028094;28;20643;-62
2023/04/13 11:51:21;;;;;;;;;;;;;;;25.30;20.90;94164.63;5023691;28;19921;-66
2023/04/13 11:53:49;;;;;;;;;;;;;;;25.46;20.86;94157.94;5016930;28;19921;-64
2023/04/13 11:56:17;;;;;;;;;;;;;;;25.52;21.36;94169.91;5021826;28;19927;-65
2023/04/13 11:58:43;;;;;;;;;;;;;;;25.58;20.76;94164.97;5010540;28;19929;-64
2023/04/13 12:01:13;;;;;;;;;;;;;;;25.83;20.47;94161.41;5013707;28;19928;-65
2023/04/13 12:06:46;;;;;;;;;;;;;;;26.31;20.71;94158.81;4989602;23;20021;-66
2023/04/13 12:09:14;;;;;;;;;;;;;;;26.15;19.58;94153.66;4950706;28;19923;-67
2023/04/13 12:11:46;;;;;;;;;;;;;;;26.28;19.77;94144.19;4950773;28;19926;-70
2023/04/13 12:14:21;;;;;;;;;;;;;;;26.64;20.09;94145.22;4948530;28;19928;-70
2023/04/13 12:16:51;;;;;;;;;;;;;;;26.68;19.11;94144.13;4948561;28;20301;-67
2023/04/13 12:19:40;;;;;;;;;;;;;;;26.15;19.19;94145.63;4957202;28;19926;-67
2023/04/13 12:22:09;;;;;;;;;;;;;;;26.80;19.40;94135.78;4936472;28;19926;-67
2023/04/13 12:24:38;;;;;;;;;;;;;;;26.88;18.97;94131.97;4960126;28;19932;-68
2023/04/13 12:27:05;;;;;;;;;;;;;;;27.23;19.83;94133.28;4947865;28;19931;-66
2023/04/13 12:29:43;;;;;;;;;;;;;;;27.14;19.47;94130.16;4950914;28;19933;-68
2023/04/13 12:32:13;;;;;;;;;;;;;;;27.12;19.64;94116.31;4950191;28;19926;-66
2023/04/13 12:34:41;;;;;;;;;;;;;;;27.06;19.97;94123.22;4951620;29;19926;-68
2023/04/13 12:37:33;;;;;;;;;;;;;;;27.26;19.65;94114.47;4950250;28;19926;-68
2023/04/13 12:40:00;;;;;;;;;;;;;;;27.74;20.44;94104.22;4951028;28;19926;-66
2023/04/13 12:42:27;;;;;;;;;;;;;;;28.08;19.98;94102.78;4942238;28;19923;-64
2023/04/13 12:45:37;;;;;;;;;;;;;;;27.97;19.69;94096.63;4950495;28;19934;-64
2023/04/13 12:48:05;;;;;;;;;;;;;;;27.99;20.36;94099.69;4937295;28;19942;-64
2023/04/13 12:50:32;;;;;;;;;;;;;;;27.94;19.11;94091.97;4949290;28;20001;-64
2023/04/13 12:52:59;;;;;;;;;;;;;;;27.92;19.78;94094.25;4953696;28;20305;-64
2023/04/13 12:55:26;;;;;;;;;;;;;;;27.73;19.23;94091.94;4953123;28;20180;-64
2023/04/13 12:57:52;;;;;;;;;;;;;;;27.64;18.95;94086.16;4949764;28;20013;-64
2023/04/13 13:00:20;;;;;;;;;;;;;;;27.94;19.04;94087.38;4954587;28;19997;-65
2023/04/13 13:02:47;;;;;;;;;;;;;;;28.11;19.29;94085.84;4940704;28;20329;-65
2023/04/13 13:05:22;;;;;;;;;;;;;;;28.41;18.30;94078.09;4962070;28;19922;-65
2023/04/13 13:07:49;;;;;;;;;;;;;;;28.06;18.91;94080.84;4943263;28;20013;-64